sensor_id;sensor_type;location;lat;lon;timestamp;temperature;humidity
16180;DHT22;8196;49.428;10.906;2023-03-29T12:10:23;18.60;52.20
16180;DHT22;8196;49.428;10.906;2023-03-29T12:13:05;19.20;51.30
16180;DHT22;8196;49.428;10.906;2023-03-29T12:15:40;19.90;50.70
16180;DHT22;8196;49.428;10.906;2023-03-29T12:18:35;20.20;50.00
16180;DHT22;8196;49.428;10.906;2023-03-29T12:21:10;19.80;51.00
16180;DHT22;8196;49.428;10.906;2023-03-29T12:23:40;19.40;52.40
16180;DHT22;8196;49.428;10.906;2023-03-29T12:26:41;18.90;53.80
16180;DHT22;8196;49.428;10.906;2023-03-29T12:32:20;18.20;56.00
16180;DHT22;8196;49.428;10.906;2023-03-29T12:40:20;17.90;57.80
16180;DHT22;8196;49.428;10.906;2023-03-29T12:42:52;17.80;57.80
16180;DHT22;8196;49.428;10.906;2023-03-29T12:45:29;17.40;57.90
16180;DHT22;8196;49.428;10.906;2023-03-29T12:47:59;17.20;58.90
16180;DHT22;8196;49.428;10.906;2023-03-29T12:50:32;16.80;59.90
16180;DHT22;8196;49.428;10.906;2023-03-29T12:53:21;16.80;60.20
16180;DHT22;8196;49.428;10.906;2023-03-29T13:01:37;18.90;56.70
16180;DHT22;8196;49.428;10.906;2023-03-29T13:04:20;19.20;55.00
16180;DHT22;8196;49.428;10.906;2023-03-29T13:09:32;19.00;55.10
16180;DHT22;8196;49.428;10.906;2023-03-29T13:14:43;18.10;56.10
16180;DHT22;8196;49.428;10.906;2023-03-29T13:30:57;19.90;52.60
16180;DHT22;8196;49.428;10.906;2023-03-29T13:33:39;19.80;52.80
16180;DHT22;8196;49.428;10.906;2023-03-29T13:36:34;19.50;52.80
16180;DHT22;8196;49.428;10.906;2023-03-29T13:39:04;18.90;53.80
16180;DHT22;8196;49.428;10.906;2023-03-29T13:44:27;19.00;55.00
16180;DHT22;8196;49.428;10.906;2023-03-29T13:47:03;19.30;53.80
16180;DHT22;8196;49.428;10.906;2023-03-29T13:49:32;19.40;53.20
16180;DHT22;8196;49.428;10.906;2023-03-29T13:52:21;19.20;54.20
16180;DHT22;8196;49.428;10.906;2023-03-29T13:54:51;20.10;53.50
16180;DHT22;8196;49.428;10.906;2023-03-29T13:57:41;21.20;50.90
16180;DHT22;8196;49.428;10.906;2023-03-29T14:02:44;21.20;49.40
16180;DHT22;8196;49.428;10.906;2023-03-29T14:05:18;20.60;50.40
16180;DHT22;8196;49.428;10.906;2023-03-29T14:07:50;20.20;51.40
16180;DHT22;8196;49.428;10.906;2023-03-29T14:10:23;19.50;52.20
16180;DHT22;8196;49.428;10.906;2023-03-29T14:12:53;18.70;53.40
16180;DHT22;8196;49.428;10.906;2023-03-29T14:17:54;17.70;55.70
16180;DHT22;8196;49.428;10.906;2023-03-29T14:25:28;16.70;58.30
16180;DHT22;8196;49.428;10.906;2023-03-29T14:30:27;17.20;57.50
16180;DHT22;8196;49.428;10.906;2023-03-29T14:35:31;18.70;55.10
16180;DHT22;8196;49.428;10.906;2023-03-29T14:40:29;22.50;48.90
16180;DHT22;8196;49.428;10.906;2023-03-29T14:42:57;24.00;44.90
16180;DHT22;8196;49.428;10.906;2023-03-29T14:50:26;21.80;47.40
16180;DHT22;8196;49.428;10.906;2023-03-29T14:52:55;22.50;47.00
16180;DHT22;8196;49.428;10.906;2023-03-29T14:57:53;22.00;47.20
16180;DHT22;8196;49.428;10.906;2023-03-29T15:05:24;22.20;47.50
16180;DHT22;8196;49.428;10.906;2023-03-29T15:12:49;23.10;45.20
16180;DHT22;8196;49.428;10.906;2023-03-29T15:15:16;22.90;45.40
16180;DHT22;8196;49.428;10.906;2023-03-29T15:17:44;22.40;45.70
16180;DHT22;8196;49.428;10.906;2023-03-29T15:20:28;21.70;46.80
16180;DHT22;8196;49.428;10.906;2023-03-29T15:22:59;21.00;48.00
16180;DHT22;8196;49.428;10.906;2023-03-29T15:25:32;20.50;49.40
16180;DHT22;8196;49.428;10.906;2023-03-29T15:30:33;19.50;51.10
16180;DHT22;8196;49.428;10.906;2023-03-29T16:05:09;16.00;59.20
16180;DHT22;8196;49.428;10.906;2023-03-29T16:39:31;15.00;66.40
16180;DHT22;8196;49.428;10.906;2023-03-29T17:09:02;13.60;74.90
16180;DHT22;8196;49.428;10.906;2023-03-29T17:13:57;13.30;76.20
16180;DHT22;8196;49.428;10.906;2023-03-29T17:55:49;12.30;88.50
16180;DHT22;8196;49.428;10.906;2023-03-29T18:00:43;12.20;90.20
16180;DHT22;8196;49.428;10.906;2023-03-29T18:05:37;12.20;91.20
16180;DHT22;8196;49.428;10.906;2023-03-29T18:35:09;11.70;99.90
16180;DHT22;8196;49.428;10.906;2023-03-29T19:12:01;11.70;99.90
16180;DHT22;8196;49.428;10.906;2023-03-29T19:53:49;11.20;99.90
16180;DHT22;8196;49.428;10.906;2023-03-29T22:21:50;9.90;99.90
16180;DHT22;8196;49.428;10.906;2023-03-29T22:36:34;9.70;99.90
16180;DHT22;8196;49.428;10.906;2023-03-29T23:18:25;9.60;99.90
16180;DHT22;8196;49.428;10.906;2023-03-29T23:30:57;9.60;99.90
16180;DHT22;8196;49.428;10.906;2023-03-29T23:33:27;9.50;99.90
16180;DHT22;8196;49.428;10.906;2023-03-29T23:35:54;9.50;99.90
16180;DHT22;8196;49.428;10.906;2023-03-29T23:40:52;9.40;99.90
